Terminal Aerodrome Forecast
Issued by NWS Amarillo, TX

Home | Current Version | Previous Version | Text Only | Print | Product List | Glossary On
Versions: 1 2 3 4 5 6 7 8 9 10 11 12 13 14 15 16 17 18 19
000
FTUS44 KAMA 020800 AAA
TAFAMA
TAF AMD
KAMA 020825Z 0208/0306 34012KT P6SM SCT200
      TEMPO 0208/0210 6SM BLDU BKN018
     FM022000 22018G28KT P6SM FEW080 SCT200
     FM030200 22015KT P6SM SCT100 SCT200
     FM030500 31020G30KT P6SM SCT040 BKN110=

USA.gov is the U.S. government's official web portal to all federal, state and local government web resources and services.